createdAt,value
2024-05-09T00:00:31.649Z,11.96
2024-05-09T00:01:29.045Z,11.96
2024-05-09T00:02:28.086Z,11.96
2024-05-09T00:03:28.103Z,11.96
2024-05-09T00:04:28.035Z,11.96
2024-05-09T00:05:28.057Z,11.96
2024-05-09T00:06:27.987Z,11.98
2024-05-09T00:07:27.945Z,11.97
2024-05-09T00:08:28.040Z,11.98
2024-05-09T00:09:27.929Z,11.98
2024-05-09T00:10:35.308Z,11.98
2024-05-09T00:11:28.971Z,12.00
2024-05-09T00:12:27.934Z,11.98
2024-05-09T00:13:27.896Z,12.00
2024-05-09T00:14:27.937Z,12.00
2024-05-09T00:15:27.877Z,11.98
2024-05-09T00:16:27.864Z,11.98
2024-05-09T00:17:27.961Z,11.98
2024-05-09T00:18:28.030Z,11.98
2024-05-09T00:19:27.876Z,11.98
2024-05-09T00:20:36.007Z,11.97
2024-05-09T00:21:28.827Z,11.97
2024-05-09T00:22:27.800Z,11.96
2024-05-09T00:23:27.829Z,11.96
2024-05-09T00:24:27.770Z,11.94
2024-05-09T00:25:27.759Z,11.94
2024-05-09T00:26:27.875Z,11.93
2024-05-09T00:27:27.736Z,11.90
2024-05-09T00:28:27.733Z,11.88
2024-05-09T00:29:27.796Z,11.84
2024-05-09T00:30:33.790Z,11.84
2024-05-09T00:31:28.701Z,11.82
2024-05-09T00:32:27.807Z,11.82
2024-05-09T00:33:27.927Z,11.78
2024-05-09T00:34:27.764Z,11.75
2024-05-09T00:35:27.783Z,11.74
2024-05-09T00:36:27.646Z,11.70
2024-05-09T00:37:27.634Z,11.69
2024-05-09T00:38:27.703Z,11.67
2024-05-09T00:39:27.611Z,11.64
2024-05-09T00:40:37.236Z,11.63
2024-05-09T00:41:28.628Z,11.62
2024-05-09T00:42:27.592Z,11.57
2024-05-09T00:43:27.576Z,11.57
2024-05-09T00:44:27.705Z,11.53
2024-05-09T00:45:27.544Z,11.54
2024-05-09T00:46:27.546Z,11.51
2024-05-09T00:47:27.683Z,11.49
2024-05-09T00:48:27.733Z,11.49
2024-05-09T00:49:27.558Z,11.48
2024-05-09T00:50:35.535Z,11.46
2024-05-09T00:51:28.475Z,11.45
2024-05-09T00:52:27.463Z,11.45
2024-05-09T00:53:27.579Z,11.44
2024-05-09T00:54:27.494Z,11.42
2024-05-09T00:55:27.432Z,11.39
2024-05-09T00:56:27.561Z,11.39
2024-05-09T00:57:27.412Z,11.36
2024-05-09T00:58:27.428Z,11.30
2024-05-09T00:59:27.504Z,11.31
2024-05-09T01:00:35.558Z,11.28
2024-05-09T01:01:28.414Z,11.24
2024-05-09T01:02:27.492Z,11.23
2024-05-09T01:03:27.868Z,11.23
2024-05-09T01:04:27.383Z,11.20
2024-05-09T01:05:27.446Z,11.17
2024-05-09T01:06:27.339Z,11.16
2024-05-09T01:07:27.308Z,11.13
2024-05-09T01:08:27.411Z,11.11
2024-05-09T01:09:27.303Z,11.08
2024-05-09T01:10:33.735Z,11.06
2024-05-09T01:11:28.333Z,11.03
2024-05-09T01:12:27.432Z,11.03
2024-05-09T01:13:27.255Z,11.02
2024-05-09T01:14:27.371Z,11.02
2024-05-09T01:15:27.222Z,11.01
2024-05-09T01:16:27.212Z,10.99
2024-05-09T01:17:27.359Z,10.98
2024-05-09T01:18:27.322Z,10.98
2024-05-09T01:19:27.302Z,10.94
2024-05-09T01:20:36.814Z,10.93
2024-05-09T01:21:28.167Z,10.91
2024-05-09T01:22:27.159Z,10.90
2024-05-09T01:23:27.169Z,10.88
2024-05-09T01:24:27.142Z,10.87
2024-05-09T01:25:27.141Z,10.86
2024-05-09T01:26:27.155Z,10.86
2024-05-09T01:27:27.097Z,10.86
2024-05-09T01:28:27.093Z,10.84
2024-05-09T01:29:27.171Z,10.83
2024-05-09T01:30:33.882Z,10.83
2024-05-09T01:31:28.049Z,10.81
2024-05-09T01:32:27.204Z,10.80
2024-05-09T01:33:27.384Z,10.76
2024-05-09T01:34:27.048Z,10.75
2024-05-09T01:35:27.136Z,10.73
2024-05-09T01:36:27.000Z,10.72
2024-05-09T01:37:26.985Z,10.72
2024-05-09T01:38:27.044Z,10.69
2024-05-09T01:39:26.969Z,10.68
2024-05-09T01:40:36.316Z,10.68
2024-05-09T01:41:28.077Z,10.65
2024-05-09T01:42:26.951Z,10.65
2024-05-09T01:43:26.948Z,10.63
2024-05-09T01:44:27.007Z,10.62
2024-05-09T01:45:26.903Z,10.60
2024-05-09T01:46:26.909Z,10.60
2024-05-09T01:47:27.144Z,10.58
2024-05-09T01:48:27.078Z,10.58
2024-05-09T01:49:26.964Z,10.58
2024-05-09T01:50:37.407Z,10.55
2024-05-09T01:51:27.830Z,10.55
2024-05-09T01:52:26.825Z,10.52
2024-05-09T01:53:26.840Z,10.52
2024-05-09T01:54:26.820Z,10.49
2024-05-09T01:55:26.786Z,10.47
2024-05-09T01:56:26.785Z,10.47
2024-05-09T01:57:26.772Z,10.44
2024-05-09T01:58:26.794Z,10.42
2024-05-09T01:59:26.894Z,10.39
2024-05-09T02:00:34.507Z,10.39
2024-05-09T02:01:27.864Z,10.38
2024-05-09T02:02:26.817Z,10.36
2024-05-09T02:03:26.860Z,10.35
2024-05-09T02:04:26.833Z,10.34
2024-05-09T02:05:26.751Z,10.31
2024-05-09T02:06:26.679Z,10.29
2024-05-09T02:07:26.662Z,10.28
2024-05-09T02:08:26.728Z,10.28
2024-05-09T02:09:26.663Z,10.26
2024-05-09T02:10:32.308Z,10.24
2024-05-09T02:11:27.669Z,10.22
2024-05-09T02:12:26.699Z,10.20
2024-05-09T02:13:26.611Z,10.20
2024-05-09T02:14:26.855Z,10.20
2024-05-09T02:15:26.605Z,10.18
2024-05-09T02:16:26.576Z,10.18
2024-05-09T02:17:26.797Z,10.17
2024-05-09T02:18:26.669Z,10.17
2024-05-09T02:19:26.653Z,10.17
2024-05-09T02:20:33.852Z,10.16
2024-05-09T02:21:27.565Z,10.16
2024-05-09T02:22:26.506Z,10.14
2024-05-09T02:23:26.564Z,10.16
2024-05-09T02:24:26.503Z,10.14
2024-05-09T02:25:26.473Z,10.14
2024-05-09T02:26:26.536Z,10.11
2024-05-09T02:27:26.452Z,10.09
2024-05-09T02:28:26.440Z,10.10
2024-05-09T02:29:26.634Z,10.10
2024-05-09T02:30:36.186Z,10.07
2024-05-09T02:31:27.404Z,10.07
2024-05-09T02:32:26.522Z,10.06
2024-05-09T02:33:26.684Z,10.02
2024-05-09T02:34:26.469Z,10.04
2024-05-09T02:35:26.727Z,10.01
2024-05-09T02:36:26.365Z,10.01
2024-05-09T02:37:26.345Z,9.99
2024-05-09T02:38:26.390Z,9.99
2024-05-09T02:39:26.325Z,10.01
2024-05-09T02:40:35.399Z,9.99
2024-05-09T02:41:27.456Z,9.98
2024-05-09T02:42:26.295Z,9.98
2024-05-09T02:43:26.274Z,9.96
2024-05-09T02:44:26.366Z,9.95
2024-05-09T02:45:26.250Z,9.93
2024-05-09T02:46:26.282Z,9.91
2024-05-09T02:47:26.350Z,9.91
2024-05-09T02:48:26.402Z,9.88
2024-05-09T02:49:26.327Z,9.88
2024-05-09T02:50:34.168Z,9.88
2024-05-09T02:51:27.193Z,9.86
2024-05-09T02:52:26.185Z,9.86
2024-05-09T02:53:26.233Z,9.83
2024-05-09T02:54:26.166Z,9.81
2024-05-09T02:55:26.141Z,9.78
2024-05-09T02:56:26.219Z,9.80
2024-05-09T02:57:26.123Z,9.77
2024-05-09T02:58:26.119Z,9.77
2024-05-09T02:59:26.335Z,9.75
2024-05-09T03:00:34.809Z,9.75
2024-05-09T03:01:27.119Z,9.75
2024-05-09T03:02:26.120Z,9.75
2024-05-09T03:03:26.538Z,9.74
2024-05-09T03:04:26.088Z,9.74
2024-05-09T03:05:26.101Z,9.74
2024-05-09T03:06:26.038Z,9.75
2024-05-09T03:07:26.040Z,9.74
2024-05-09T03:08:26.083Z,9.74
2024-05-09T03:09:26.007Z,9.74
2024-05-09T03:10:28.945Z,9.74
2024-05-09T03:11:27.144Z,9.71
2024-05-09T03:12:26.022Z,9.70
2024-05-09T03:13:25.956Z,9.70
2024-05-09T03:14:26.068Z,9.71
2024-05-09T03:15:25.935Z,9.70
2024-05-09T03:16:25.918Z,9.70
2024-05-09T03:17:26.060Z,9.67
2024-05-09T03:18:25.952Z,9.65
2024-05-09T03:19:25.974Z,9.67
2024-05-09T03:20:32.558Z,9.65
2024-05-09T03:21:26.881Z,9.62
2024-05-09T03:22:25.856Z,9.62
2024-05-09T03:23:25.926Z,9.59
2024-05-09T03:24:25.836Z,9.56
2024-05-09T03:25:25.845Z,9.52
2024-05-09T03:26:25.927Z,9.52
2024-05-09T03:27:25.808Z,9.50
2024-05-09T03:28:25.839Z,9.50
2024-05-09T03:29:26.010Z,9.49
2024-05-09T03:30:35.614Z,9.48
2024-05-09T03:31:26.765Z,9.48
2024-05-09T03:32:25.892Z,9.44
2024-05-09T03:33:26.317Z,9.45
2024-05-09T03:34:25.775Z,9.42
2024-05-09T03:35:26.828Z,9.40
2024-05-09T03:36:25.705Z,9.40
2024-05-09T03:37:25.703Z,9.40
2024-05-09T03:38:25.854Z,9.38
2024-05-09T03:39:25.680Z,9.37
2024-05-09T03:40:29.027Z,9.37
2024-05-09T03:41:26.722Z,9.37
2024-05-09T03:42:25.660Z,9.35
2024-05-09T03:43:25.654Z,9.34
2024-05-09T03:44:25.802Z,9.32
2024-05-09T03:45:25.614Z,9.32
2024-05-09T03:46:25.608Z,9.31
2024-05-09T03:47:25.804Z,9.31
2024-05-09T03:48:25.774Z,9.32
2024-05-09T03:49:25.772Z,9.32
2024-05-09T03:50:30.413Z,9.34
2024-05-09T03:51:26.557Z,9.32
2024-05-09T03:52:25.547Z,9.30
2024-05-09T03:53:25.588Z,9.30
2024-05-09T03:54:25.569Z,9.30
2024-05-09T03:55:25.507Z,9.27
2024-05-09T03:56:25.572Z,9.26
2024-05-09T03:57:25.499Z,9.26
2024-05-09T03:58:25.475Z,9.24
2024-05-09T03:59:25.628Z,9.24
2024-05-09T04:00:31.761Z,9.23
2024-05-09T04:01:26.507Z,9.23
2024-05-09T04:02:25.548Z,9.22
2024-05-09T04:03:25.651Z,9.22
2024-05-09T04:04:25.491Z,9.22
2024-05-09T04:05:25.504Z,9.20
2024-05-09T04:06:25.412Z,9.20
2024-05-09T04:07:25.386Z,9.19
2024-05-09T04:08:25.396Z,9.17
2024-05-09T04:09:25.382Z,9.19
2024-05-09T04:10:32.336Z,9.17
2024-05-09T04:11:26.402Z,9.19
2024-05-09T04:12:25.370Z,9.20
2024-05-09T04:13:25.320Z,9.20
2024-05-09T04:14:25.329Z,9.19
2024-05-09T04:15:25.296Z,9.19
2024-05-09T04:16:25.293Z,9.17
2024-05-09T04:17:25.419Z,9.17
2024-05-09T04:18:25.377Z,9.16
2024-05-09T04:19:25.350Z,9.15
2024-05-09T04:20:35.884Z,9.16
2024-05-09T04:21:26.231Z,9.17
2024-05-09T04:22:25.213Z,9.17
2024-05-09T04:23:25.247Z,9.19
2024-05-09T04:24:25.208Z,9.20
2024-05-09T04:25:25.187Z,9.20
2024-05-09T04:26:25.274Z,9.19
2024-05-09T04:27:25.162Z,9.19
2024-05-09T04:28:25.156Z,9.19
2024-05-09T04:29:25.323Z,9.17
2024-05-09T04:30:34.576Z,9.19
2024-05-09T04:31:26.142Z,9.19
2024-05-09T04:32:25.227Z,9.17
2024-05-09T04:33:25.598Z,9.20
2024-05-09T04:34:25.200Z,9.22
2024-05-09T04:35:25.162Z,9.20
2024-05-09T04:36:25.073Z,9.20
2024-05-09T04:37:25.094Z,9.20
2024-05-09T04:38:25.088Z,9.22
2024-05-09T04:39:25.046Z,9.20
2024-05-09T04:40:32.700Z,9.22
2024-05-09T04:41:26.069Z,9.20
2024-05-09T04:42:25.007Z,9.20
2024-05-09T04:43:25.027Z,9.22
2024-05-09T04:44:25.014Z,9.22
2024-05-09T04:45:24.993Z,9.20
2024-05-09T04:46:24.962Z,9.22
2024-05-09T04:47:25.213Z,9.24
2024-05-09T04:48:25.133Z,9.23
2024-05-09T04:49:25.122Z,9.23
2024-05-09T04:50:33.288Z,9.23
2024-05-09T04:51:25.922Z,9.24
2024-05-09T04:52:24.910Z,9.24
2024-05-09T04:53:24.947Z,9.24
2024-05-09T04:54:33.736Z,9.24
2024-05-09T04:55:25.877Z,9.27
2024-05-09T04:56:24.912Z,9.27
2024-05-09T04:57:24.859Z,9.26
2024-05-09T04:58:24.836Z,9.31
2024-05-09T04:59:25.003Z,9.30
2024-05-09T05:00:32.600Z,9.32
2024-05-09T05:01:25.851Z,9.34
2024-05-09T05:02:24.894Z,9.34
2024-05-09T05:03:25.061Z,9.34
2024-05-09T05:04:24.819Z,9.35
2024-05-09T05:05:24.814Z,9.37
2024-05-09T05:06:24.755Z,9.38
2024-05-09T05:07:24.756Z,9.41
2024-05-09T05:08:24.798Z,9.41
2024-05-09T05:09:24.721Z,9.42
2024-05-09T05:10:33.053Z,9.42
2024-05-09T05:11:25.769Z,9.44
2024-05-09T05:12:24.742Z,9.45
2024-05-09T05:13:25.294Z,9.45
2024-05-09T05:14:24.699Z,9.45
2024-05-09T05:15:24.661Z,9.48
2024-05-09T05:16:24.652Z,9.48
2024-05-09T05:17:24.786Z,9.49
2024-05-09T05:18:24.918Z,9.50
2024-05-09T05:19:24.767Z,9.49
2024-05-09T05:20:32.541Z,9.52
2024-05-09T05:21:25.759Z,9.53
2024-05-09T05:22:24.594Z,9.55
2024-05-09T05:23:24.766Z,9.56
2024-05-09T05:24:24.556Z,9.59
2024-05-09T05:25:24.556Z,9.60
2024-05-09T05:26:24.574Z,9.63
2024-05-09T05:27:24.526Z,9.68
2024-05-09T05:28:24.528Z,9.68
2024-05-09T05:29:24.594Z,9.71
2024-05-09T05:30:29.119Z,9.74
2024-05-09T05:31:25.551Z,9.77
2024-05-09T05:32:24.726Z,9.78
2024-05-09T05:33:24.647Z,9.81
2024-05-09T05:34:24.468Z,9.83
2024-05-09T05:35:24.593Z,9.83
2024-05-09T05:36:24.458Z,9.85
2024-05-09T05:37:24.432Z,9.86
2024-05-09T05:38:27.488Z,9.86
2024-05-09T05:39:24.405Z,9.89
2024-05-09T05:40:32.704Z,9.89
2024-05-09T05:41:25.469Z,9.91
2024-05-09T05:42:24.373Z,9.92
2024-05-09T05:43:24.366Z,9.93
2024-05-09T05:44:24.373Z,9.93
2024-05-09T05:45:24.342Z,9.95
2024-05-09T05:46:24.346Z,9.96
2024-05-09T05:47:24.484Z,9.96
2024-05-09T05:48:24.593Z,9.99
2024-05-09T05:49:24.456Z,9.99
2024-05-09T05:50:32.260Z,10.02
2024-05-09T05:51:25.311Z,10.07
2024-05-09T05:52:24.285Z,10.09
2024-05-09T05:53:24.326Z,10.10
2024-05-09T05:54:24.240Z,10.13
2024-05-09T05:55:24.279Z,10.14
2024-05-09T05:56:24.251Z,10.17
2024-05-09T05:57:24.223Z,10.18
2024-05-09T05:58:24.196Z,10.22
2024-05-09T05:59:24.256Z,10.25
2024-05-09T06:01:24.265Z,10.31
2024-05-09T06:02:24.192Z,10.34
2024-05-09T06:03:24.214Z,10.36
2024-05-09T06:04:24.206Z,10.36
2024-05-09T06:05:26.040Z,10.39
2024-05-09T06:06:24.122Z,10.43
2024-05-09T06:07:24.108Z,10.44
2024-05-09T06:08:26.189Z,10.47
2024-05-09T06:09:24.082Z,10.49
2024-05-09T06:10:29.664Z,10.52
2024-05-09T06:11:25.241Z,10.54
2024-05-09T06:12:24.162Z,10.55
2024-05-09T06:13:24.057Z,10.57
2024-05-09T06:14:24.146Z,10.57
2024-05-09T06:15:24.020Z,10.60
2024-05-09T06:16:24.006Z,10.62
2024-05-09T06:17:24.152Z,10.62
2024-05-09T06:18:24.326Z,10.66
2024-05-09T06:19:24.258Z,10.68
2024-05-09T06:20:31.949Z,10.66
2024-05-09T06:21:24.988Z,10.72
2024-05-09T06:22:23.946Z,10.73
2024-05-09T06:23:23.963Z,10.76
2024-05-09T06:24:23.926Z,10.78
2024-05-09T06:25:23.914Z,10.80
2024-05-09T06:26:23.963Z,10.81
2024-05-09T06:27:23.897Z,10.84
2024-05-09T06:28:23.876Z,10.86
2024-05-09T06:29:23.981Z,10.88
2024-05-09T06:30:30.566Z,10.88
2024-05-09T06:31:24.863Z,10.91
2024-05-09T06:32:23.945Z,10.94
2024-05-09T06:33:24.025Z,10.93
2024-05-09T06:34:23.889Z,10.98
2024-05-09T06:35:23.868Z,10.98
2024-05-09T06:36:23.790Z,11.02
2024-05-09T06:37:23.806Z,11.03
2024-05-09T06:38:23.831Z,11.05
2024-05-09T06:39:23.764Z,11.06
2024-05-09T06:40:29.251Z,11.08
2024-05-09T06:41:24.812Z,11.09
2024-05-09T06:42:23.736Z,11.11
2024-05-09T06:43:23.725Z,11.13
2024-05-09T06:44:23.823Z,11.17
2024-05-09T06:45:23.735Z,11.20
2024-05-09T06:46:23.688Z,11.23
2024-05-09T06:47:23.795Z,11.28
2024-05-09T06:48:23.913Z,11.28
2024-05-09T06:49:23.739Z,11.31
2024-05-09T06:50:27.843Z,11.35
2024-05-09T06:51:24.715Z,11.36
2024-05-09T06:52:23.620Z,11.41
2024-05-09T06:53:23.701Z,11.44
2024-05-09T06:54:23.599Z,11.45
2024-05-09T06:55:23.594Z,11.48
2024-05-09T06:56:23.632Z,11.53
2024-05-09T06:57:23.582Z,11.56
2024-05-09T06:58:23.583Z,11.57
2024-05-09T06:59:23.564Z,11.60
2024-05-09T07:00:30.707Z,11.63
2024-05-09T07:01:24.571Z,11.64
2024-05-09T07:02:23.631Z,11.66
2024-05-09T07:03:23.666Z,11.67
2024-05-09T07:04:23.594Z,11.70
2024-05-09T07:05:23.579Z,11.74
2024-05-09T07:06:23.476Z,11.78
2024-05-09T07:07:23.481Z,11.82
2024-05-09T07:08:23.645Z,11.82
2024-05-09T07:09:23.444Z,11.87
2024-05-09T07:10:29.012Z,11.90
2024-05-09T07:11:24.547Z,11.94
2024-05-09T07:12:23.536Z,11.98
2024-05-09T07:13:23.417Z,12.01
2024-05-09T07:14:23.419Z,12.04
2024-05-09T07:15:23.387Z,12.07
2024-05-09T07:16:23.394Z,12.11
2024-05-09T07:17:23.727Z,12.15
2024-05-09T07:18:23.595Z,12.16
2024-05-09T07:19:23.380Z,12.19
2024-05-09T07:20:32.083Z,12.22
2024-05-09T07:21:24.345Z,12.23
2024-05-09T07:22:23.325Z,12.26
2024-05-09T07:23:23.357Z,12.30
2024-05-09T07:24:23.309Z,12.30
2024-05-09T07:25:23.268Z,12.33
2024-05-09T07:26:23.317Z,12.34
2024-05-09T07:27:23.255Z,12.36
2024-05-09T07:28:23.265Z,12.38
2024-05-09T07:29:23.286Z,12.41
2024-05-09T07:30:27.943Z,12.43
2024-05-09T07:31:24.203Z,12.44
2024-05-09T07:32:23.395Z,12.49
2024-05-09T07:33:24.440Z,12.52
2024-05-09T07:34:23.255Z,12.56
2024-05-09T07:35:23.276Z,12.59
2024-05-09T07:36:23.162Z,12.62
2024-05-09T07:37:23.143Z,12.62
2024-05-09T07:38:23.159Z,12.67
2024-05-09T07:39:23.124Z,12.69
2024-05-09T07:40:32.239Z,12.70
2024-05-09T07:41:24.165Z,12.73
2024-05-09T07:42:23.088Z,12.74
2024-05-09T07:43:23.095Z,12.77
2024-05-09T07:44:23.114Z,12.80
2024-05-09T07:45:41.671Z,12.81
2024-05-09T07:47:17.286Z,12.84
2024-05-09T07:48:56.502Z,12.87
2024-05-09T07:53:30.207Z,12.99
2024-05-09T07:54:23.130Z,13.07
2024-05-09T07:55:23.223Z,13.09
2024-05-09T07:56:24.267Z,13.13
2024-05-09T07:57:22.943Z,13.14
2024-05-09T07:58:22.922Z,13.16
2024-05-09T07:59:22.920Z,13.17
2024-05-09T08:00:29.732Z,13.19
2024-05-09T08:01:24.022Z,13.24
2024-05-09T08:02:22.987Z,13.25
2024-05-09T08:03:23.162Z,13.27
2024-05-09T08:04:25.103Z,13.29
2024-05-09T08:05:22.912Z,13.32
2024-05-09T08:06:22.850Z,13.38
2024-05-09T08:07:22.919Z,13.39
2024-05-09T08:08:22.820Z,13.44
2024-05-09T08:09:22.836Z,13.46
2024-05-09T08:10:27.430Z,13.50
2024-05-09T08:11:23.932Z,13.51
2024-05-09T08:12:22.776Z,13.54
2024-05-09T08:13:23.218Z,13.59
2024-05-09T08:14:22.788Z,13.61
2024-05-09T08:15:22.732Z,13.65
2024-05-09T08:16:22.917Z,13.66
2024-05-09T08:17:22.848Z,13.68
2024-05-09T08:18:22.810Z,13.72
2024-05-09T08:19:22.829Z,13.75
2024-05-09T08:20:30.665Z,13.76
2024-05-09T08:21:23.685Z,13.80
2024-05-09T08:22:22.667Z,13.84
2024-05-09T08:23:22.672Z,13.87
2024-05-09T08:24:22.641Z,13.91
2024-05-09T08:25:22.657Z,13.96
2024-05-09T08:26:22.625Z,14.02
2024-05-09T08:27:22.607Z,14.05
2024-05-09T08:28:22.753Z,14.08
2024-05-09T08:29:22.635Z,14.09
2024-05-09T08:30:29.770Z,14.12
2024-05-09T08:31:23.644Z,14.16
2024-05-09T08:32:22.638Z,14.20
2024-05-09T08:33:22.696Z,14.24
2024-05-09T08:34:22.830Z,14.26
2024-05-09T08:35:22.615Z,14.30
2024-05-09T08:36:22.519Z,14.31
2024-05-09T08:37:26.007Z,14.36
2024-05-09T08:38:23.517Z,14.41
2024-05-09T08:39:22.484Z,14.42
2024-05-09T08:40:30.666Z,14.46
2024-05-09T08:41:23.459Z,14.48
2024-05-09T08:42:22.481Z,14.49
2024-05-09T08:43:22.519Z,14.52
2024-05-09T08:44:22.424Z,14.54
2024-05-09T08:45:22.427Z,14.57
2024-05-09T08:46:22.482Z,14.60
2024-05-09T08:47:22.487Z,14.64
2024-05-09T08:48:22.475Z,14.66
2024-05-09T08:49:22.406Z,14.71
2024-05-09T08:50:31.779Z,14.74
2024-05-09T08:51:23.360Z,14.78
2024-05-09T08:52:22.338Z,14.82
2024-05-09T08:53:22.348Z,14.85
2024-05-09T08:54:22.321Z,14.87
2024-05-09T08:55:22.300Z,14.87
2024-05-09T08:56:22.307Z,14.91
2024-05-09T08:57:22.287Z,14.94
2024-05-09T08:58:22.357Z,14.97
2024-05-09T08:59:22.270Z,15.01
2024-05-09T09:00:29.800Z,15.05
2024-05-09T09:01:23.309Z,15.12
2024-05-09T09:02:22.431Z,15.16
2024-05-09T09:03:22.260Z,15.19
2024-05-09T09:04:22.314Z,15.25
2024-05-09T09:05:22.286Z,15.30
2024-05-09T09:06:22.189Z,15.33
2024-05-09T09:07:22.227Z,15.35
2024-05-09T09:08:22.180Z,15.38
2024-05-09T09:09:22.173Z,15.43
2024-05-09T09:10:29.588Z,15.51
2024-05-09T09:11:23.180Z,15.55
2024-05-09T09:12:22.155Z,15.60
2024-05-09T09:13:22.166Z,15.67
2024-05-09T09:14:22.101Z,15.71
2024-05-09T09:15:22.107Z,15.76
2024-05-09T09:16:22.128Z,15.81
2024-05-09T09:17:22.228Z,15.86
2024-05-09T09:18:22.145Z,15.91
2024-05-09T09:19:22.228Z,15.95
2024-05-09T09:20:28.753Z,15.98
2024-05-09T09:21:23.022Z,15.99
2024-05-09T09:22:22.106Z,16.07
2024-05-09T09:23:22.004Z,16.16
2024-05-09T09:24:21.998Z,16.27
2024-05-09T09:25:21.987Z,16.36
2024-05-09T09:26:21.986Z,16.45
2024-05-09T09:27:21.977Z,16.51
2024-05-09T09:28:21.986Z,16.51
2024-05-09T09:29:21.934Z,16.54
2024-05-09T09:30:34.102Z,16.59
2024-05-09T09:31:22.960Z,16.60
2024-05-09T09:32:21.943Z,16.62
2024-05-09T09:33:21.986Z,16.63
2024-05-09T09:34:21.961Z,16.66
2024-05-09T09:35:21.919Z,16.72
2024-05-09T09:36:21.873Z,16.77
2024-05-09T09:37:21.859Z,16.82
2024-05-09T09:38:21.846Z,16.88
2024-05-09T09:39:21.836Z,16.92
2024-05-09T09:40:22.442Z,17.00
2024-05-09T09:41:21.810Z,17.06
2024-05-09T09:42:21.818Z,17.12
2024-05-09T09:43:22.346Z,17.17
2024-05-09T09:44:21.787Z,17.20
2024-05-09T09:45:21.801Z,17.24
2024-05-09T09:46:21.845Z,17.28
2024-05-09T09:47:21.772Z,17.33
2024-05-09T09:48:22.356Z,17.36
2024-05-09T09:49:21.785Z,17.42
2024-05-09T09:50:27.885Z,17.51
2024-05-09T09:51:22.818Z,17.58
2024-05-09T09:52:21.983Z,17.70
2024-05-09T09:53:21.684Z,17.80
2024-05-09T09:54:21.677Z,17.89
2024-05-09T09:55:21.778Z,17.96
2024-05-09T09:56:21.686Z,18.05
2024-05-09T09:57:21.692Z,18.10
2024-05-09T09:58:21.821Z,18.10
2024-05-09T09:59:21.653Z,18.13
2024-05-09T10:00:27.155Z,18.17
2024-05-09T10:01:22.711Z,18.25
2024-05-09T10:02:21.802Z,18.31
2024-05-09T10:03:21.735Z,18.36
2024-05-09T10:04:21.786Z,18.42
2024-05-09T10:05:21.730Z,18.50
2024-05-09T10:06:21.571Z,18.56
2024-05-09T10:07:21.637Z,18.62
2024-05-09T10:08:21.549Z,18.65
2024-05-09T10:09:21.523Z,18.71
2024-05-09T10:10:29.863Z,18.75
2024-05-09T10:11:22.604Z,18.82
2024-05-09T10:12:21.623Z,18.86
2024-05-09T10:13:21.596Z,18.89
2024-05-09T10:14:21.465Z,18.89
2024-05-09T10:15:21.534Z,18.91
2024-05-09T10:16:21.663Z,18.93
2024-05-09T10:17:21.517Z,18.96
2024-05-09T10:18:21.496Z,19.06
2024-05-09T10:19:21.520Z,19.10
2024-05-09T10:20:25.115Z,19.17
2024-05-09T10:21:22.387Z,19.24
2024-05-09T10:22:21.441Z,19.27
2024-05-09T10:23:21.387Z,19.31
2024-05-09T10:24:21.364Z,19.38
2024-05-09T10:25:21.519Z,19.42
2024-05-09T10:26:21.392Z,19.40
2024-05-09T10:27:21.340Z,19.43
2024-05-09T10:28:21.386Z,19.43
2024-05-09T10:29:21.311Z,19.49
2024-05-09T10:30:26.075Z,19.52
2024-05-09T10:31:22.306Z,19.57
2024-05-09T10:32:21.438Z,19.61
2024-05-09T10:33:21.470Z,19.64
2024-05-09T10:34:21.395Z,19.68
2024-05-09T10:35:21.310Z,19.78
2024-05-09T10:36:21.247Z,19.85
2024-05-09T10:37:21.281Z,19.94
2024-05-09T10:38:21.239Z,19.98
2024-05-09T10:39:21.212Z,20.04
2024-05-09T10:40:26.559Z,20.08
2024-05-09T10:41:22.200Z,20.17
2024-05-09T10:42:21.168Z,20.23
2024-05-09T10:43:21.328Z,20.30
2024-05-09T10:44:21.181Z,20.33
2024-05-09T10:45:21.266Z,20.41
2024-05-09T10:46:21.475Z,20.50
2024-05-09T10:47:21.240Z,20.54
2024-05-09T10:48:21.266Z,20.60
2024-05-09T10:49:21.249Z,20.68
2024-05-09T10:50:28.123Z,20.73
2024-05-09T10:51:22.078Z,20.79
2024-05-09T10:52:21.145Z,20.83
2024-05-09T10:53:21.045Z,20.93
2024-05-09T10:54:21.051Z,20.97
2024-05-09T10:55:21.391Z,21.00
2024-05-09T10:56:21.048Z,21.08
2024-05-09T10:57:21.011Z,21.16
2024-05-09T10:58:21.059Z,21.27
2024-05-09T10:59:20.979Z,21.37
2024-05-09T11:00:27.628Z,21.45
2024-05-09T11:01:22.122Z,21.52
2024-05-09T11:02:21.284Z,21.56
2024-05-09T11:03:21.003Z,21.59
2024-05-09T11:04:21.187Z,21.58
2024-05-09T11:05:21.142Z,21.58
2024-05-09T11:06:20.926Z,21.56
2024-05-09T11:07:21.048Z,21.55
2024-05-09T11:08:20.905Z,21.56
2024-05-09T11:09:20.913Z,21.58
2024-05-09T11:10:27.642Z,21.61
2024-05-09T11:11:21.898Z,21.64
2024-05-09T11:12:22.808Z,21.67
2024-05-09T11:13:20.867Z,21.67
2024-05-09T11:14:20.843Z,21.70
2024-05-09T11:15:20.810Z,21.68
2024-05-09T11:16:21.387Z,21.70
2024-05-09T11:17:20.940Z,21.68
2024-05-09T11:18:24.258Z,21.68
2024-05-09T11:19:20.930Z,21.73
2024-05-09T11:20:26.931Z,21.74
2024-05-09T11:21:21.772Z,21.74
2024-05-09T11:22:20.801Z,21.79
2024-05-09T11:23:20.729Z,21.82
2024-05-09T11:24:20.735Z,21.90
2024-05-09T11:25:20.761Z,22.01
2024-05-09T11:26:20.700Z,22.12
2024-05-09T11:27:20.685Z,22.29
2024-05-09T11:28:20.754Z,22.42
2024-05-09T11:29:20.688Z,22.56
2024-05-09T11:30:29.574Z,22.70
2024-05-09T11:31:22.079Z,22.85
2024-05-09T11:32:20.673Z,22.89
2024-05-09T11:33:20.664Z,22.94
2024-05-09T11:34:20.663Z,22.93
2024-05-09T11:35:20.604Z,22.88
2024-05-09T11:36:20.591Z,22.85
2024-05-09T11:37:20.647Z,22.85
2024-05-09T11:38:20.567Z,22.88
2024-05-09T11:39:20.555Z,22.93
2024-05-09T11:40:25.613Z,22.96
2024-05-09T11:41:21.536Z,23.07
2024-05-09T11:42:20.563Z,23.19
2024-05-09T11:43:20.650Z,23.35
2024-05-09T11:44:20.492Z,23.41
2024-05-09T11:45:20.501Z,23.47
2024-05-09T11:46:20.594Z,23.50
2024-05-09T11:47:20.515Z,23.56
2024-05-09T11:48:20.692Z,23.57
2024-05-09T11:49:21.478Z,23.71
2024-05-09T11:50:27.170Z,23.84
2024-05-09T11:51:21.452Z,23.92
2024-05-09T11:52:20.526Z,23.96
2024-05-09T11:53:20.414Z,23.99
2024-05-09T11:54:20.400Z,24.02
2024-05-09T11:55:21.147Z,24.05
2024-05-09T11:56:20.378Z,24.04
2024-05-09T11:57:20.376Z,24.06
2024-05-09T11:58:20.484Z,24.16
2024-05-09T11:59:20.339Z,24.29
2024-05-09T12:00:29.166Z,24.39
2024-05-09T12:01:23.149Z,24.48
2024-05-09T12:02:20.536Z,24.55
2024-05-09T12:03:20.363Z,24.63
2024-05-09T12:04:20.508Z,24.67
2024-05-09T12:05:20.775Z,24.83
2024-05-09T12:06:20.292Z,25.01
2024-05-09T12:07:20.358Z,25.19
2024-05-09T12:08:20.242Z,25.30
2024-05-09T12:09:20.242Z,25.41
2024-05-09T12:10:26.014Z,25.53
2024-05-09T12:11:21.346Z,25.63
2024-05-09T12:12:20.200Z,25.76
2024-05-09T12:13:20.417Z,25.89
2024-05-09T12:14:20.186Z,25.97
2024-05-09T12:15:20.179Z,26.06
2024-05-09T12:16:20.358Z,26.21
2024-05-09T12:17:20.314Z,26.34
2024-05-09T12:18:20.231Z,26.46
2024-05-09T12:19:20.149Z,26.50
2024-05-09T12:20:28.534Z,26.65
2024-05-09T12:21:21.120Z,26.81
2024-05-09T12:22:20.114Z,27.11
2024-05-09T12:23:20.109Z,27.45
2024-05-09T12:24:20.082Z,27.91
2024-05-09T12:25:20.115Z,28.40
2024-05-09T12:26:20.064Z,28.91
2024-05-09T12:27:20.055Z,29.48
2024-05-09T12:28:20.234Z,30.30
2024-05-09T12:29:20.035Z,30.75
2024-05-09T12:30:28.838Z,31.23
2024-05-09T12:31:21.026Z,32.07
2024-05-09T12:32:20.007Z,32.77
2024-05-09T12:33:20.188Z,33.70
2024-05-09T12:34:20.082Z,33.96
2024-05-09T12:35:19.978Z,34.60
2024-05-09T12:36:19.974Z,33.47
2024-05-09T12:37:19.986Z,32.59
2024-05-09T12:38:19.935Z,31.94
2024-05-09T12:39:19.932Z,31.35
2024-05-09T12:40:26.802Z,30.94
2024-05-09T12:41:20.925Z,30.56
2024-05-09T12:42:27.066Z,30.16
2024-05-09T12:43:20.931Z,29.78
2024-05-09T12:44:19.904Z,29.54
2024-05-09T12:45:19.878Z,29.69
2024-05-09T12:46:19.927Z,30.54
2024-05-09T12:47:19.979Z,30.26
2024-05-09T12:48:19.943Z,31.03
2024-05-09T12:49:20.376Z,31.16
2024-05-09T12:50:28.802Z,33.09
2024-05-09T12:51:20.823Z,34.60
2024-05-09T12:52:19.824Z,36.06
2024-05-09T12:53:19.802Z,37.31
2024-05-09T12:54:19.781Z,38.34
2024-05-09T12:55:19.781Z,39.25
2024-05-09T12:56:19.751Z,40.10
2024-05-09T12:57:19.767Z,40.79
2024-05-09T12:58:19.884Z,41.46
2024-05-09T12:59:19.719Z,42.08
2024-05-09T13:00:27.104Z,41.96
2024-05-09T13:01:20.850Z,42.42
2024-05-09T13:02:19.924Z,40.63
2024-05-09T13:03:19.839Z,39.14
2024-05-09T13:04:19.906Z,37.95